createdAt,value
2019-05-17T00:02:09.526Z,9.10
2019-05-17T00:04:40.191Z,9.00
2019-05-17T00:07:11.341Z,9.00
2019-05-17T00:09:42.025Z,9.00
2019-05-17T00:12:12.613Z,9.00
2019-05-17T00:14:43.506Z,9.00
2019-05-17T00:17:14.030Z,8.90
2019-05-17T00:19:46.501Z,8.80
2019-05-17T00:22:17.065Z,8.70
2019-05-17T00:24:47.860Z,8.70
2019-05-17T00:27:18.531Z,8.60
2019-05-17T00:29:49.550Z,8.60
2019-05-17T00:32:20.143Z,8.60
2019-05-17T00:34:50.979Z,8.60
2019-05-17T00:37:21.505Z,8.60
2019-05-17T00:39:52.078Z,8.60
2019-05-17T00:42:22.845Z,8.60
2019-05-17T00:44:53.338Z,8.50
2019-05-17T00:47:23.931Z,8.50
2019-05-17T00:49:56.838Z,8.40
2019-05-17T00:52:27.351Z,8.40
2019-05-17T00:54:58.091Z,8.40
2019-05-17T00:57:28.588Z,8.40
2019-05-17T00:59:59.213Z,8.40
2019-05-17T01:02:29.859Z,8.30
2019-05-17T01:05:00.442Z,8.30
2019-05-17T01:07:30.938Z,8.30
2019-05-17T01:10:01.854Z,8.30
2019-05-17T01:12:33.494Z,8.30
2019-05-17T01:15:09.821Z,8.30
2019-05-17T01:17:40.461Z,8.30
2019-05-17T01:20:11.534Z,8.20
2019-05-17T01:22:42.103Z,8.30
2019-05-17T01:25:13.439Z,8.20
2019-05-17T01:27:44.073Z,8.20
2019-05-17T01:30:14.730Z,8.20
2019-05-17T01:32:46.409Z,8.20
2019-05-17T01:35:17.510Z,8.20
2019-05-17T01:38:08.377Z,8.20
2019-05-17T01:40:39.149Z,8.10
2019-05-17T01:43:09.718Z,8.10
2019-05-17T01:45:40.387Z,8.00
2019-05-17T01:48:10.982Z,8.00
2019-05-17T01:50:41.789Z,8.00
2019-05-17T01:53:13.650Z,7.90
2019-05-17T01:55:46.482Z,7.90
2019-05-17T01:58:16.815Z,7.90
2019-05-17T02:00:47.455Z,7.90
2019-05-17T02:03:18.321Z,7.80
2019-05-17T02:05:49.078Z,7.80
2019-05-17T02:08:19.813Z,7.80
2019-05-17T02:10:50.500Z,7.70
2019-05-17T02:13:21.205Z,7.70
2019-05-17T02:15:51.854Z,7.70
2019-05-17T02:18:22.758Z,7.60
2019-05-17T02:20:53.326Z,7.60
2019-05-17T02:23:26.852Z,7.60
2019-05-17T02:25:57.113Z,7.60
2019-05-17T02:28:29.088Z,7.60
2019-05-17T02:31:03.432Z,7.60
2019-05-17T02:33:33.928Z,7.60
2019-05-17T02:36:04.639Z,7.60
2019-05-17T02:38:35.302Z,7.60
2019-05-17T02:41:06.064Z,7.60
2019-05-17T02:43:36.985Z,7.50
2019-05-17T02:46:07.667Z,7.50
2019-05-17T02:48:38.627Z,7.50
2019-05-17T02:51:12.757Z,7.50
2019-05-17T02:53:42.907Z,7.50
2019-05-17T02:56:13.955Z,7.50
2019-05-17T02:58:44.639Z,7.50
2019-05-17T03:01:15.440Z,7.50
2019-05-17T03:03:46.019Z,7.50
2019-05-17T03:06:17.197Z,7.50
2019-05-17T03:08:47.951Z,7.50
2019-05-17T03:11:22.439Z,7.40
2019-05-17T03:13:52.615Z,7.40
2019-05-17T03:16:23.887Z,7.40
2019-05-17T03:18:54.981Z,7.30
2019-05-17T03:21:25.568Z,7.30
2019-05-17T03:23:56.319Z,7.30
2019-05-17T03:26:26.843Z,7.20
2019-05-17T03:28:57.452Z,7.20
2019-05-17T03:31:34.307Z,7.20
2019-05-17T03:34:06.460Z,7.30
2019-05-17T03:36:36.259Z,7.30
2019-05-17T03:39:07.675Z,7.30
2019-05-17T03:41:38.323Z,7.30
2019-05-17T03:44:08.986Z,7.30
2019-05-17T03:46:42.360Z,7.30
2019-05-17T03:49:13.146Z,7.40
2019-05-17T03:51:44.260Z,7.40
2019-05-17T03:54:15.032Z,7.40
2019-05-17T03:56:47.065Z,7.40
2019-05-17T03:59:17.663Z,7.50
2019-05-17T04:01:48.604Z,7.50
2019-05-17T04:04:22.662Z,7.50
2019-05-17T04:06:52.595Z,7.50
2019-05-17T04:09:23.478Z,7.50
2019-05-17T04:11:54.393Z,7.50
2019-05-17T04:14:25.001Z,7.60
2019-05-17T04:16:55.563Z,7.60
2019-05-17T04:19:26.227Z,7.60
2019-05-17T04:21:56.871Z,7.60
2019-05-17T04:24:27.624Z,7.70
2019-05-17T04:26:58.323Z,7.70
2019-05-17T04:29:28.831Z,7.80
2019-05-17T04:31:59.591Z,7.80
2019-05-17T04:34:33.259Z,7.90
2019-05-17T04:37:04.321Z,7.90
2019-05-17T04:39:34.793Z,7.90
2019-05-17T04:42:05.667Z,7.90
2019-05-17T04:44:36.986Z,8.00
2019-05-17T04:47:07.719Z,8.00
2019-05-17T04:49:38.359Z,8.00
2019-05-17T04:52:10.034Z,8.00
2019-05-17T04:54:42.439Z,8.00
2019-05-17T04:57:13.327Z,8.00
2019-05-17T04:59:44.376Z,8.10
2019-05-17T05:02:15.418Z,8.10
2019-05-17T05:04:46.871Z,8.20
2019-05-17T05:07:17.569Z,8.20
2019-05-17T05:09:48.547Z,8.20
2019-05-17T05:12:19.073Z,8.30
2019-05-17T05:14:52.257Z,8.30
2019-05-17T05:17:23.432Z,8.40
2019-05-17T05:19:54.109Z,8.50
2019-05-17T05:22:24.712Z,8.50
2019-05-17T05:24:55.230Z,8.60
2019-05-17T05:27:26.058Z,8.80
2019-05-17T05:29:56.930Z,8.80
2019-05-17T05:32:27.704Z,9.00
2019-05-17T05:34:58.578Z,9.10
2019-05-17T05:37:29.393Z,9.20
2019-05-17T05:40:02.113Z,9.30
2019-05-17T05:42:32.724Z,9.40
2019-05-17T05:45:03.703Z,9.50
2019-05-17T05:47:34.322Z,9.50
2019-05-17T05:50:06.894Z,9.60
2019-05-17T05:52:37.458Z,9.70
2019-05-17T05:55:08.745Z,9.80
2019-05-17T05:57:41.637Z,9.90
2019-05-17T06:00:13.929Z,9.90
2019-05-17T06:02:44.570Z,10.00
2019-05-17T06:05:17.360Z,10.00
2019-05-17T06:07:48.047Z,10.10
2019-05-17T06:10:18.713Z,10.10
2019-05-17T06:12:51.626Z,10.20
2019-05-17T06:15:22.322Z,10.20
2019-05-17T06:17:52.898Z,10.30
2019-05-17T06:20:23.878Z,10.40
2019-05-17T06:22:54.601Z,10.50
2019-05-17T06:25:25.494Z,10.60
2019-05-17T06:27:56.153Z,10.70
2019-05-17T06:30:26.797Z,10.80
2019-05-17T06:32:57.329Z,10.90
2019-05-17T06:35:28.215Z,11.00
2019-05-17T06:37:58.814Z,11.00
2019-05-17T06:40:29.511Z,11.10
2019-05-17T06:43:03.981Z,11.10
2019-05-17T06:45:32.649Z,11.20
2019-05-17T06:48:04.362Z,11.30
2019-05-17T06:50:35.053Z,11.40
2019-05-17T06:53:05.737Z,11.50
2019-05-17T06:55:36.382Z,11.60
2019-05-17T06:58:07.167Z,11.70
2019-05-17T07:00:40.255Z,11.80
2019-05-17T07:03:10.181Z,11.90
2019-05-17T07:05:42.425Z,12.10
2019-05-17T07:08:12.928Z,12.20
2019-05-17T07:10:43.598Z,12.30
2019-05-17T07:13:14.290Z,12.40
2019-05-17T07:15:47.965Z,12.50
2019-05-17T07:18:19.367Z,12.60
2019-05-17T07:20:50.273Z,12.80
2019-05-17T07:23:21.051Z,12.90
2019-05-17T07:25:51.578Z,13.00
2019-05-17T07:28:22.084Z,13.10
2019-05-17T07:30:52.685Z,13.10
2019-05-17T07:33:23.646Z,13.20
2019-05-17T07:35:54.486Z,13.30
2019-05-17T07:38:25.178Z,13.40
2019-05-17T07:40:55.714Z,13.40
2019-05-17T07:43:26.433Z,13.40
2019-05-17T07:45:56.966Z,13.50
2019-05-17T07:48:27.579Z,13.50
2019-05-17T07:50:59.408Z,13.50
2019-05-17T07:53:30.828Z,13.60
2019-05-17T07:56:01.506Z,13.60
2019-05-17T07:58:32.225Z,13.70
2019-05-17T08:01:02.869Z,13.70
2019-05-17T08:03:33.582Z,13.80
2019-05-17T08:06:04.238Z,13.80
2019-05-17T08:08:34.947Z,13.90
2019-05-17T08:11:05.533Z,13.90
2019-05-17T08:13:36.132Z,14.00
2019-05-17T08:16:07.185Z,14.20
2019-05-17T08:18:40.111Z,14.30
2019-05-17T08:21:10.577Z,14.40
2019-05-17T08:23:41.543Z,14.40
2019-05-17T08:26:12.305Z,14.40
2019-05-17T08:28:42.846Z,14.50
2019-05-17T08:31:13.543Z,14.60
2019-05-17T08:33:44.149Z,14.60
2019-05-17T08:36:14.663Z,14.80
2019-05-17T08:38:45.547Z,14.80
2019-05-17T08:41:17.621Z,14.90
2019-05-17T08:43:51.176Z,14.90
2019-05-17T08:46:20.934Z,15.00
2019-05-17T08:48:51.610Z,15.10
2019-05-17T08:51:22.357Z,15.10
2019-05-17T08:53:53.026Z,15.20
2019-05-17T08:56:23.610Z,15.40
2019-05-17T08:58:55.217Z,15.40
2019-05-17T09:01:25.863Z,15.60
2019-05-17T09:03:56.510Z,15.70
2019-05-17T09:06:29.171Z,15.80
2019-05-17T09:09:00.803Z,16.00
2019-05-17T09:11:33.413Z,16.20
2019-05-17T09:14:04.557Z,16.40
2019-05-17T09:16:35.490Z,16.60
2019-05-17T09:19:06.168Z,16.70
2019-05-17T09:21:36.838Z,16.80
2019-05-17T09:24:10.246Z,17.00
2019-05-17T09:26:40.250Z,17.10
2019-05-17T09:29:11.000Z,17.40
2019-05-17T09:31:42.983Z,17.50
2019-05-17T09:34:13.633Z,17.70
2019-05-17T09:36:44.563Z,17.90
2019-05-17T09:39:15.226Z,18.10
2019-05-17T09:41:45.937Z,18.30
2019-05-17T09:44:16.689Z,18.60
2019-05-17T09:46:47.305Z,18.70
2019-05-17T09:49:19.296Z,18.70
2019-05-17T09:51:51.080Z,18.70
2019-05-17T09:54:37.118Z,18.70
2019-05-17T09:56:54.355Z,18.70
2019-05-17T09:59:25.019Z,18.90
2019-05-17T10:01:55.914Z,19.20
2019-05-17T10:04:26.466Z,19.40
2019-05-17T10:06:59.256Z,19.60
2019-05-17T10:09:29.160Z,19.80
2019-05-17T10:12:00.062Z,20.00
2019-05-17T10:14:31.388Z,20.10
2019-05-17T10:17:02.200Z,20.30
2019-05-17T10:19:32.946Z,20.60
2019-05-17T10:22:03.703Z,20.80
2019-05-17T10:24:38.826Z,21.00
2019-05-17T10:27:06.857Z,21.10
2019-05-17T10:29:39.349Z,21.10
2019-05-17T10:32:10.463Z,20.90
2019-05-17T10:34:42.331Z,21.10
2019-05-17T10:37:14.052Z,21.30
2019-05-17T10:39:45.607Z,21.20
2019-05-17T10:42:16.270Z,21.20
2019-05-17T10:44:47.913Z,21.20
2019-05-17T10:47:20.022Z,21.20
2019-05-17T10:49:50.735Z,21.20
2019-05-17T10:52:21.437Z,21.20
2019-05-17T10:54:52.001Z,21.20
2019-05-17T10:57:22.623Z,21.30
2019-05-17T10:59:53.595Z,21.30
2019-05-17T11:02:24.271Z,21.20
2019-05-17T11:04:55.268Z,21.20
2019-05-17T11:07:26.215Z,21.10
2019-05-17T11:09:56.775Z,20.90
2019-05-17T11:12:28.508Z,20.90
2019-05-17T11:15:10.398Z,20.80
2019-05-17T11:17:31.608Z,20.70
2019-05-17T11:20:02.345Z,20.60
2019-05-17T11:22:33.166Z,20.50
2019-05-17T11:25:06.139Z,20.50
2019-05-17T11:27:36.869Z,20.70
2019-05-17T11:30:08.569Z,20.60
2019-05-17T11:32:39.262Z,20.60
2019-05-17T11:35:10.219Z,20.50
2019-05-17T11:37:40.773Z,20.70
2019-05-17T11:40:11.814Z,20.70
2019-05-17T11:42:43.789Z,20.60
2019-05-17T11:45:27.452Z,20.50
2019-05-17T11:47:48.023Z,20.30
2019-05-17T11:50:18.998Z,20.30
2019-05-17T11:52:49.552Z,20.50
2019-05-17T11:55:20.318Z,20.50
2019-05-17T11:57:50.954Z,20.50
2019-05-17T12:00:23.083Z,20.40
2019-05-17T12:02:53.710Z,20.50
2019-05-17T12:05:24.620Z,20.60
2019-05-17T12:07:55.121Z,20.60
2019-05-17T12:10:25.935Z,20.70
2019-05-17T12:12:56.908Z,20.70
2019-05-17T12:15:42.241Z,20.80
2019-05-17T12:18:00.131Z,20.90
2019-05-17T12:20:30.761Z,21.00
2019-05-17T12:23:01.558Z,21.10
2019-05-17T12:25:32.231Z,21.20
2019-05-17T12:28:03.859Z,21.20
2019-05-17T12:30:34.495Z,21.40
2019-05-17T12:33:05.275Z,21.60
2019-05-17T12:35:35.974Z,21.70
2019-05-17T12:38:06.939Z,21.80
2019-05-17T12:40:37.615Z,22.00
2019-05-17T12:43:08.204Z,22.20
2019-05-17T12:45:39.735Z,22.30
2019-05-17T12:48:10.917Z,22.40
2019-05-17T12:50:41.630Z,22.60
2019-05-17T12:53:12.324Z,22.70
2019-05-17T12:55:44.355Z,22.90
2019-05-17T12:58:15.003Z,22.90
2019-05-17T13:00:45.567Z,22.90
2019-05-17T13:03:16.162Z,23.00
2019-05-17T13:05:47.086Z,23.10
2019-05-17T13:08:17.923Z,23.40
2019-05-17T13:10:48.439Z,23.60
2019-05-17T13:13:19.078Z,23.60
2019-05-17T13:15:49.938Z,23.60
2019-05-17T13:18:20.498Z,23.50
2019-05-17T13:20:51.162Z,23.40
2019-05-17T13:23:22.332Z,23.40
2019-05-17T13:25:53.884Z,23.30
2019-05-17T13:28:24.739Z,23.40
2019-05-17T13:30:55.721Z,23.40
2019-05-17T13:33:29.117Z,23.30
2019-05-17T13:35:58.654Z,23.40
2019-05-17T13:38:29.202Z,23.50
2019-05-17T13:40:59.790Z,23.50
2019-05-17T13:43:30.545Z,23.60
2019-05-17T13:46:01.603Z,23.70
2019-05-17T13:48:33.563Z,23.60
2019-05-17T13:51:04.336Z,23.40
2019-05-17T13:53:34.971Z,23.30
2019-05-17T13:56:05.631Z,23.10
2019-05-17T13:58:36.155Z,23.00
2019-05-17T14:01:06.830Z,22.80
2019-05-17T14:03:37.540Z,22.50
2019-05-17T14:06:08.271Z,22.30
2019-05-17T14:08:38.802Z,22.00
2019-05-17T14:11:09.585Z,21.80
2019-05-17T14:13:40.102Z,21.60
2019-05-17T14:16:10.594Z,21.50
2019-05-17T14:18:41.264Z,21.30
2019-05-17T14:21:12.178Z,21.30
2019-05-17T14:23:43.083Z,21.30
2019-05-17T14:26:14.112Z,21.20
2019-05-17T14:28:45.062Z,21.30
2019-05-17T14:31:15.643Z,21.30
2019-05-17T14:33:46.225Z,21.20
2019-05-17T14:36:16.865Z,21.10
2019-05-17T14:38:47.607Z,21.00
2019-05-17T14:41:18.306Z,20.90
2019-05-17T14:43:49.283Z,20.90
2019-05-17T14:46:20.191Z,20.90
2019-05-17T14:48:50.712Z,20.80
2019-05-17T14:51:22.421Z,20.90
2019-05-17T14:53:53.333Z,20.80
2019-05-17T14:56:25.411Z,20.80
2019-05-17T14:58:56.227Z,20.70
2019-05-17T15:01:26.927Z,20.70
2019-05-17T15:03:57.426Z,20.70
2019-05-17T15:06:28.057Z,20.70
2019-05-17T15:08:58.621Z,20.70
2019-05-17T15:11:29.333Z,20.80
2019-05-17T15:13:59.898Z,20.80
2019-05-17T15:16:30.510Z,20.80
2019-05-17T15:19:01.107Z,20.90
2019-05-17T15:21:32.029Z,20.80
2019-05-17T15:24:03.971Z,20.90
2019-05-17T15:26:35.754Z,20.90
2019-05-17T15:29:07.647Z,20.80
2019-05-17T15:31:38.416Z,20.70
2019-05-17T15:34:09.053Z,20.70
2019-05-17T15:36:39.614Z,20.60
2019-05-17T15:39:10.262Z,20.60
2019-05-17T15:41:40.937Z,20.50
2019-05-17T15:44:11.522Z,20.50
2019-05-17T15:46:42.159Z,20.50
2019-05-17T15:49:12.782Z,20.40
2019-05-17T15:51:43.524Z,20.40
2019-05-17T15:54:14.229Z,20.40
2019-05-17T15:56:44.731Z,20.30
2019-05-17T15:59:15.333Z,20.20
2019-05-17T16:01:46.287Z,20.20
2019-05-17T16:04:16.880Z,20.10
2019-05-17T16:06:47.520Z,20.20
2019-05-17T16:09:18.404Z,20.20
2019-05-17T16:11:48.995Z,20.20
2019-05-17T16:14:19.650Z,20.30
2019-05-17T16:16:50.180Z,20.40
2019-05-17T16:19:20.820Z,20.40
2019-05-17T16:21:51.501Z,20.40
2019-05-17T16:24:21.997Z,20.40
2019-05-17T16:26:52.591Z,20.30
2019-05-17T16:29:23.079Z,20.20
2019-05-17T16:31:53.594Z,20.20
2019-05-17T16:34:24.399Z,20.10
2019-05-17T16:36:54.916Z,20.00
2019-05-17T16:39:25.474Z,20.00
2019-05-17T16:41:56.558Z,19.90
2019-05-17T16:44:27.107Z,19.80
2019-05-17T16:46:57.765Z,19.80
2019-05-17T16:49:28.645Z,19.70
2019-05-17T16:51:59.442Z,19.70
2019-05-17T16:54:30.416Z,19.70
2019-05-17T16:57:01.118Z,19.70
2019-05-17T16:59:31.687Z,19.70
2019-05-17T17:02:02.471Z,19.60
2019-05-17T17:04:33.080Z,19.60
2019-05-17T17:07:03.739Z,19.50
2019-05-17T17:09:34.967Z,19.50
2019-05-17T17:12:05.954Z,19.50
2019-05-17T17:14:36.651Z,19.40
2019-05-17T17:17:11.427Z,19.40
2019-05-17T17:19:39.563Z,19.40
2019-05-17T17:22:10.055Z,19.30
2019-05-17T17:24:40.709Z,19.30
2019-05-17T17:27:11.355Z,19.20
2019-05-17T17:29:42.128Z,19.10
2019-05-17T17:32:21.186Z,19.00
2019-05-17T17:34:45.270Z,18.90
2019-05-17T17:37:15.835Z,18.90
2019-05-17T17:39:46.942Z,18.80
2019-05-17T17:42:17.887Z,18.80
2019-05-17T17:44:48.493Z,18.70
2019-05-17T17:47:22.430Z,18.60
2019-05-17T17:49:53.908Z,18.60
2019-05-17T17:52:25.540Z,18.50
2019-05-17T17:54:56.317Z,18.40
2019-05-17T17:57:26.950Z,18.40
2019-05-17T17:59:57.684Z,18.30
2019-05-17T18:02:28.421Z,18.30
2019-05-17T18:04:59.147Z,18.30
2019-05-17T18:07:29.703Z,18.30
2019-05-17T18:10:00.218Z,18.20
2019-05-17T18:12:30.816Z,18.20
2019-05-17T18:15:04.421Z,18.10
2019-05-17T18:17:39.192Z,18.00
2019-05-17T18:20:06.370Z,18.00
2019-05-17T18:22:37.241Z,17.90
2019-05-17T18:25:08.078Z,17.80
2019-05-17T18:27:38.667Z,17.80
2019-05-17T18:30:09.737Z,17.70
2019-05-17T18:32:40.509Z,17.60
2019-05-17T18:35:11.357Z,17.60
2019-05-17T18:37:42.016Z,17.50
2019-05-17T18:40:13.213Z,17.40
2019-05-17T18:42:44.019Z,17.40
2019-05-17T18:45:15.513Z,17.30
2019-05-17T18:47:46.135Z,17.30
2019-05-17T18:50:16.891Z,17.20
2019-05-17T18:52:47.557Z,17.20
2019-05-17T18:55:18.285Z,17.10
2019-05-17T18:57:49.490Z,17.00
2019-05-17T19:00:20.350Z,17.00
2019-05-17T19:02:51.002Z,16.90
2019-05-17T19:05:21.751Z,16.70
2019-05-17T19:07:52.407Z,16.70
2019-05-17T19:10:23.063Z,16.70
2019-05-17T19:12:53.576Z,16.50
2019-05-17T19:15:24.343Z,16.50
2019-05-17T19:17:54.929Z,16.40
2019-05-17T19:20:25.576Z,16.30
2019-05-17T19:22:56.538Z,16.20
2019-05-17T19:25:27.103Z,16.10
2019-05-17T19:27:57.873Z,16.10
2019-05-17T19:30:28.503Z,16.00
2019-05-17T19:32:59.458Z,16.00
2019-05-17T19:35:30.211Z,16.00
2019-05-17T19:38:00.832Z,15.90
2019-05-17T19:40:31.475Z,15.80
2019-05-17T19:43:02.404Z,15.80
2019-05-17T19:45:33.038Z,15.70
2019-05-17T19:48:03.731Z,15.70
2019-05-17T19:50:34.370Z,15.60
2019-05-17T19:53:05.214Z,15.60
2019-05-17T19:55:35.775Z,15.60
2019-05-17T19:58:06.556Z,15.50
2019-05-17T20:00:37.155Z,15.50
2019-05-17T20:03:07.996Z,15.50
2019-05-17T20:05:38.563Z,15.40
2019-05-17T20:08:23.079Z,15.40
2019-05-17T20:10:53.714Z,15.30
2019-05-17T20:13:25.146Z,15.30
2019-05-17T20:15:56.960Z,15.30
2019-05-17T20:18:28.243Z,15.30
2019-05-17T20:20:58.799Z,15.30
2019-05-17T20:23:29.779Z,15.20
2019-05-17T20:26:01.374Z,15.20
2019-05-17T20:28:32.123Z,15.20
2019-05-17T20:31:02.738Z,15.20
2019-05-17T20:33:33.359Z,15.10
2019-05-17T20:36:04.135Z,15.10
2019-05-17T20:38:34.767Z,15.00
2019-05-17T20:41:05.615Z,14.90
2019-05-17T20:43:36.255Z,14.80
2019-05-17T20:46:06.981Z,14.70
2019-05-17T20:48:37.483Z,14.60
2019-05-17T20:51:08.138Z,14.50
2019-05-17T20:53:38.642Z,14.40
2019-05-17T20:56:09.306Z,14.40
2019-05-17T20:58:40.050Z,14.30
2019-05-17T21:01:10.745Z,14.30
2019-05-17T21:03:41.759Z,14.20
2019-05-17T21:06:12.413Z,14.10
2019-05-17T21:08:45.867Z,14.00
2019-05-17T21:11:15.598Z,14.00
2019-05-17T21:13:46.380Z,13.90
2019-05-17T21:16:16.985Z,13.80
2019-05-17T21:18:47.657Z,13.80
2019-05-17T21:21:18.231Z,13.80
2019-05-17T21:23:48.839Z,13.80
2019-05-17T21:26:19.545Z,13.70
2019-05-17T21:28:50.161Z,13.70
2019-05-17T21:31:20.754Z,13.70
2019-05-17T21:33:51.346Z,13.70
2019-05-17T21:36:21.953Z,13.60
2019-05-17T21:38:52.882Z,13.60
2019-05-17T21:41:23.514Z,13.50
2019-05-17T21:43:54.218Z,13.50
2019-05-17T21:46:24.715Z,13.50
2019-05-17T21:48:55.615Z,13.40
2019-05-17T21:51:26.114Z,13.40
2019-05-17T21:53:56.750Z,13.40
2019-05-17T21:56:27.331Z,13.30
2019-05-17T21:58:57.862Z,13.30
2019-05-17T22:01:30.186Z,13.30
2019-05-17T22:04:01.041Z,13.20
2019-05-17T22:06:31.746Z,13.20
2019-05-17T22:09:02.702Z,13.10
2019-05-17T22:11:36.013Z,13.20
2019-05-17T22:14:06.796Z,13.10
2019-05-17T22:16:37.446Z,13.10
2019-05-17T22:19:08.190Z,13.10
2019-05-17T22:21:39.221Z,13.10
2019-05-17T22:24:09.907Z,13.00
2019-05-17T22:26:40.419Z,13.00
2019-05-17T22:29:11.065Z,13.00
2019-05-17T22:31:41.652Z,12.90
2019-05-17T22:34:12.225Z,12.80
2019-05-17T22:36:42.827Z,12.70
2019-05-17T22:39:13.409Z,12.70
2019-05-17T22:41:46.013Z,12.70
2019-05-17T22:44:16.570Z,12.60
2019-05-17T22:46:47.232Z,12.50
2019-05-17T22:49:17.844Z,12.50
2019-05-17T22:51:48.733Z,12.40
2019-05-17T22:54:19.665Z,12.40
2019-05-17T22:56:50.371Z,12.40
2019-05-17T22:59:21.054Z,12.40
2019-05-17T23:01:52.098Z,12.30
2019-05-17T23:04:22.902Z,12.30
2019-05-17T23:06:53.967Z,12.30
2019-05-17T23:09:24.587Z,12.30
2019-05-17T23:11:55.233Z,12.30
2019-05-17T23:14:25.749Z,12.20
2019-05-17T23:16:56.246Z,12.20
2019-05-17T23:19:26.869Z,12.20
2019-05-17T23:21:57.374Z,12.10
2019-05-17T23:24:27.997Z,12.10
2019-05-17T23:26:58.671Z,11.90
2019-05-17T23:29:29.762Z,11.60
2019-05-17T23:32:00.320Z,11.50
2019-05-17T23:34:31.017Z,11.40
2019-05-17T23:37:01.946Z,11.50
2019-05-17T23:39:32.537Z,11.50
2019-05-17T23:42:03.216Z,11.50
2019-05-17T23:44:34.054Z,11.30
2019-05-17T23:47:07.401Z,11.30
2019-05-17T23:49:37.299Z,11.20
2019-05-17T23:52:07.821Z,11.20
2019-05-17T23:54:38.668Z,11.20
2019-05-17T23:57:09.421Z,11.20
2019-05-17T23:59:39.877Z,11.20
